sensor_id;sensor_type;location;lat;lon;timestamp;temperature;humidity
50758;DHT22;36732;47.980;11.652;2023-03-07T00:00:55;6.60;55.70
50758;DHT22;36732;47.980;11.652;2023-03-07T00:03:21;6.60;55.80
50758;DHT22;36732;47.980;11.652;2023-03-07T00:05:46;6.60;55.80
50758;DHT22;36732;47.980;11.652;2023-03-07T00:08:12;6.60;55.80
50758;DHT22;36732;47.980;11.652;2023-03-07T00:10:38;6.60;55.80
50758;DHT22;36732;47.980;11.652;2023-03-07T00:13:04;6.60;55.80
50758;DHT22;36732;47.980;11.652;2023-03-07T00:15:30;6.60;55.80
50758;DHT22;36732;47.980;11.652;2023-03-07T00:17:56;6.60;55.80
50758;DHT22;36732;47.980;11.652;2023-03-07T00:20:22;6.60;55.80
50758;DHT22;36732;47.980;11.652;2023-03-07T00:22:48;6.60;55.70
50758;DHT22;36732;47.980;11.652;2023-03-07T00:25:14;6.60;55.70
50758;DHT22;36732;47.980;11.652;2023-03-07T00:27:40;6.60;55.70
50758;DHT22;36732;47.980;11.652;2023-03-07T00:30:06;6.60;55.70
50758;DHT22;36732;47.980;11.652;2023-03-07T00:32:34;6.60;55.70
50758;DHT22;36732;47.980;11.652;2023-03-07T00:35:00;6.60;55.80
50758;DHT22;36732;47.980;11.652;2023-03-07T00:37:25;6.60;55.70
50758;DHT22;36732;47.980;11.652;2023-03-07T00:39:51;6.60;55.70
50758;DHT22;36732;47.980;11.652;2023-03-07T00:42:17;6.60;55.80
50758;DHT22;36732;47.980;11.652;2023-03-07T00:44:43;6.60;55.70
50758;DHT22;36732;47.980;11.652;2023-03-07T00:47:08;6.60;55.70
50758;DHT22;36732;47.980;11.652;2023-03-07T00:49:34;6.60;55.70
50758;DHT22;36732;47.980;11.652;2023-03-07T00:52:00;6.60;55.60
50758;DHT22;36732;47.980;11.652;2023-03-07T00:54:26;6.60;55.60
50758;DHT22;36732;47.980;11.652;2023-03-07T00:56:51;6.60;55.70
50758;DHT22;36732;47.980;11.652;2023-03-07T00:59:17;6.60;55.60
50758;DHT22;36732;47.980;11.652;2023-03-07T01:01:43;6.60;55.40
50758;DHT22;36732;47.980;11.652;2023-03-07T01:04:09;6.60;55.40
50758;DHT22;36732;47.980;11.652;2023-03-07T01:06:35;6.60;55.40
50758;DHT22;36732;47.980;11.652;2023-03-07T01:09:03;6.60;55.40
50758;DHT22;36732;47.980;11.652;2023-03-07T01:11:35;6.60;55.40
50758;DHT22;36732;47.980;11.652;2023-03-07T01:14:03;6.60;55.30
50758;DHT22;36732;47.980;11.652;2023-03-07T01:16:35;6.60;55.30
50758;DHT22;36732;47.980;11.652;2023-03-07T01:19:05;6.60;55.10
50758;DHT22;36732;47.980;11.652;2023-03-07T01:21:38;6.60;55.20
50758;DHT22;36732;47.980;11.652;2023-03-07T01:24:06;6.60;55.20
50758;DHT22;36732;47.980;11.652;2023-03-07T01:26:33;6.60;55.20
50758;DHT22;36732;47.980;11.652;2023-03-07T01:29:01;6.60;55.20
50758;DHT22;36732;47.980;11.652;2023-03-07T01:31:28;6.60;55.20
50758;DHT22;36732;47.980;11.652;2023-03-07T01:33:55;6.60;55.20
50758;DHT22;36732;47.980;11.652;2023-03-07T01:36:22;6.60;55.20
50758;DHT22;36732;47.980;11.652;2023-03-07T01:39:11;6.60;55.20
50758;DHT22;36732;47.980;11.652;2023-03-07T01:41:39;6.60;55.10
50758;DHT22;36732;47.980;11.652;2023-03-07T01:44:14;6.60;55.10
50758;DHT22;36732;47.980;11.652;2023-03-07T01:46:54;6.60;55.10
50758;DHT22;36732;47.980;11.652;2023-03-07T01:49:39;6.60;55.10
50758;DHT22;36732;47.980;11.652;2023-03-07T01:52:13;6.60;55.00
50758;DHT22;36732;47.980;11.652;2023-03-07T01:54:43;6.60;55.00
50758;DHT22;36732;47.980;11.652;2023-03-07T01:57:17;6.60;55.00
50758;DHT22;36732;47.980;11.652;2023-03-07T01:59:46;6.60;55.20
50758;DHT22;36732;47.980;11.652;2023-03-07T02:02:17;6.60;55.00
50758;DHT22;36732;47.980;11.652;2023-03-07T02:04:56;6.60;54.90
50758;DHT22;36732;47.980;11.652;2023-03-07T02:07:30;6.60;54.90
50758;DHT22;36732;47.980;11.652;2023-03-07T02:09:59;6.60;54.70
50758;DHT22;36732;47.980;11.652;2023-03-07T02:12:26;6.60;54.70
50758;DHT22;36732;47.980;11.652;2023-03-07T02:14:52;6.60;54.80
50758;DHT22;36732;47.980;11.652;2023-03-07T02:17:18;6.60;54.70
50758;DHT22;36732;47.980;11.652;2023-03-07T02:22:35;6.50;54.60
50758;DHT22;36732;47.980;11.652;2023-03-07T02:25:34;6.50;54.60
50758;DHT22;36732;47.980;11.652;2023-03-07T02:28:04;6.50;54.40
50758;DHT22;36732;47.980;11.652;2023-03-07T02:30:32;6.50;54.30
50758;DHT22;36732;47.980;11.652;2023-03-07T02:32:58;6.60;54.40
50758;DHT22;36732;47.980;11.652;2023-03-07T02:35:25;6.60;54.50
50758;DHT22;36732;47.980;11.652;2023-03-07T02:37:58;6.50;54.40
50758;DHT22;36732;47.980;11.652;2023-03-07T02:40:27;6.50;55.00
50758;DHT22;36732;47.980;11.652;2023-03-07T02:42:55;6.60;54.60
50758;DHT22;36732;47.980;11.652;2023-03-07T02:45:22;6.50;54.40
50758;DHT22;36732;47.980;11.652;2023-03-07T02:47:48;6.50;54.50
50758;DHT22;36732;47.980;11.652;2023-03-07T02:50:14;6.50;54.40
50758;DHT22;36732;47.980;11.652;2023-03-07T02:52:40;6.50;54.20
50758;DHT22;36732;47.980;11.652;2023-03-07T02:55:07;6.50;54.20
50758;DHT22;36732;47.980;11.652;2023-03-07T02:57:34;6.50;54.20
50758;DHT22;36732;47.980;11.652;2023-03-07T03:00:00;6.50;54.20
50758;DHT22;36732;47.980;11.652;2023-03-07T03:02:29;6.50;54.20
50758;DHT22;36732;47.980;11.652;2023-03-07T03:04:54;6.50;54.20
50758;DHT22;36732;47.980;11.652;2023-03-07T03:07:20;6.50;54.10
50758;DHT22;36732;47.980;11.652;2023-03-07T03:09:46;6.50;54.20
50758;DHT22;36732;47.980;11.652;2023-03-07T03:12:12;6.60;54.20
50758;DHT22;36732;47.980;11.652;2023-03-07T03:14:37;6.50;54.10
50758;DHT22;36732;47.980;11.652;2023-03-07T03:17:03;6.50;54.10
50758;DHT22;36732;47.980;11.652;2023-03-07T03:19:29;6.50;54.10
50758;DHT22;36732;47.980;11.652;2023-03-07T03:21:55;6.50;54.00
50758;DHT22;36732;47.980;11.652;2023-03-07T03:24:21;6.50;53.90
50758;DHT22;36732;47.980;11.652;2023-03-07T03:26:47;6.50;54.00
50758;DHT22;36732;47.980;11.652;2023-03-07T03:29:13;6.50;54.00
50758;DHT22;36732;47.980;11.652;2023-03-07T03:31:39;6.50;54.00
50758;DHT22;36732;47.980;11.652;2023-03-07T03:34:04;6.50;54.60
50758;DHT22;36732;47.980;11.652;2023-03-07T03:36:30;6.50;53.90
50758;DHT22;36732;47.980;11.652;2023-03-07T03:38:58;6.50;53.90
50758;DHT22;36732;47.980;11.652;2023-03-07T03:41:24;6.50;53.80
50758;DHT22;36732;47.980;11.652;2023-03-07T03:43:50;6.50;53.80
50758;DHT22;36732;47.980;11.652;2023-03-07T03:46:17;6.50;53.80
50758;DHT22;36732;47.980;11.652;2023-03-07T03:48:51;6.50;53.70
50758;DHT22;36732;47.980;11.652;2023-03-07T03:51:21;6.50;53.60
50758;DHT22;36732;47.980;11.652;2023-03-07T03:53:48;6.50;53.50
50758;DHT22;36732;47.980;11.652;2023-03-07T03:56:19;6.50;53.60
50758;DHT22;36732;47.980;11.652;2023-03-07T03:58:48;6.50;53.70
50758;DHT22;36732;47.980;11.652;2023-03-07T04:01:16;6.50;53.60
50758;DHT22;36732;47.980;11.652;2023-03-07T04:03:50;6.50;53.60
50758;DHT22;36732;47.980;11.652;2023-03-07T04:06:19;6.50;53.50
50758;DHT22;36732;47.980;11.652;2023-03-07T04:08:52;6.50;53.50
50758;DHT22;36732;47.980;11.652;2023-03-07T04:11:19;6.50;53.50
50758;DHT22;36732;47.980;11.652;2023-03-07T04:13:46;6.50;53.50
50758;DHT22;36732;47.980;11.652;2023-03-07T04:16:12;6.50;53.30
50758;DHT22;36732;47.980;11.652;2023-03-07T04:18:38;6.50;53.50
50758;DHT22;36732;47.980;11.652;2023-03-07T04:21:04;6.50;53.30
50758;DHT22;36732;47.980;11.652;2023-03-07T04:23:31;6.50;53.40
50758;DHT22;36732;47.980;11.652;2023-03-07T04:25:59;6.50;54.10
50758;DHT22;36732;47.980;11.652;2023-03-07T04:28:28;6.50;53.40
50758;DHT22;36732;47.980;11.652;2023-03-07T04:31:18;6.50;53.50
50758;DHT22;36732;47.980;11.652;2023-03-07T04:33:46;6.50;53.30
50758;DHT22;36732;47.980;11.652;2023-03-07T04:36:12;6.50;53.30
50758;DHT22;36732;47.980;11.652;2023-03-07T04:38:40;6.50;53.20
50758;DHT22;36732;47.980;11.652;2023-03-07T04:41:08;6.50;53.30
50758;DHT22;36732;47.980;11.652;2023-03-07T04:43:36;6.40;53.30
50758;DHT22;36732;47.980;11.652;2023-03-07T04:46:02;6.50;53.20
50758;DHT22;36732;47.980;11.652;2023-03-07T04:48:28;6.40;53.30
50758;DHT22;36732;47.980;11.652;2023-03-07T04:50:54;6.40;53.30
50758;DHT22;36732;47.980;11.652;2023-03-07T04:53:19;6.40;53.40
50758;DHT22;36732;47.980;11.652;2023-03-07T04:55:45;6.40;53.40
50758;DHT22;36732;47.980;11.652;2023-03-07T04:58:12;6.40;53.40
50758;DHT22;36732;47.980;11.652;2023-03-07T05:00:41;6.40;53.40
50758;DHT22;36732;47.980;11.652;2023-03-07T05:03:09;6.40;53.30
50758;DHT22;36732;47.980;11.652;2023-03-07T05:05:36;6.40;53.30
50758;DHT22;36732;47.980;11.652;2023-03-07T05:08:02;6.40;53.30
50758;DHT22;36732;47.980;11.652;2023-03-07T05:10:30;6.40;53.30
50758;DHT22;36732;47.980;11.652;2023-03-07T05:12:56;6.40;53.30
50758;DHT22;36732;47.980;11.652;2023-03-07T05:15:22;6.40;53.30
50758;DHT22;36732;47.980;11.652;2023-03-07T05:17:47;6.40;53.30
50758;DHT22;36732;47.980;11.652;2023-03-07T05:20:13;6.50;53.30
50758;DHT22;36732;47.980;11.652;2023-03-07T05:22:39;6.40;53.30
50758;DHT22;36732;47.980;11.652;2023-03-07T05:25:05;6.40;53.40
50758;DHT22;36732;47.980;11.652;2023-03-07T05:27:32;6.40;53.20
50758;DHT22;36732;47.980;11.652;2023-03-07T05:29:58;6.40;53.20
50758;DHT22;36732;47.980;11.652;2023-03-07T05:32:23;6.40;53.30
50758;DHT22;36732;47.980;11.652;2023-03-07T05:34:49;6.40;53.30
50758;DHT22;36732;47.980;11.652;2023-03-07T05:37:15;6.40;53.20
50758;DHT22;36732;47.980;11.652;2023-03-07T05:39:41;6.40;53.00
50758;DHT22;36732;47.980;11.652;2023-03-07T05:42:07;6.40;52.90
50758;DHT22;36732;47.980;11.652;2023-03-07T05:44:33;6.40;53.00
50758;DHT22;36732;47.980;11.652;2023-03-07T05:46:59;6.40;53.00
50758;DHT22;36732;47.980;11.652;2023-03-07T05:49:25;6.40;53.00
50758;DHT22;36732;47.980;11.652;2023-03-07T05:51:50;6.40;53.00
50758;DHT22;36732;47.980;11.652;2023-03-07T05:54:16;6.30;53.00
50758;DHT22;36732;47.980;11.652;2023-03-07T05:56:42;6.30;53.00
50758;DHT22;36732;47.980;11.652;2023-03-07T05:59:08;6.30;52.90
50758;DHT22;36732;47.980;11.652;2023-03-07T06:01:35;6.30;52.80
50758;DHT22;36732;47.980;11.652;2023-03-07T06:04:01;6.30;52.80
50758;DHT22;36732;47.980;11.652;2023-03-07T06:06:27;6.30;52.90
50758;DHT22;36732;47.980;11.652;2023-03-07T06:08:53;6.30;53.00
50758;DHT22;36732;47.980;11.652;2023-03-07T06:11:19;6.30;53.00
50758;DHT22;36732;47.980;11.652;2023-03-07T06:13:44;6.20;52.90
50758;DHT22;36732;47.980;11.652;2023-03-07T06:16:10;6.20;52.90
50758;DHT22;36732;47.980;11.652;2023-03-07T06:18:36;6.20;52.90
50758;DHT22;36732;47.980;11.652;2023-03-07T06:21:04;6.20;53.00
50758;DHT22;36732;47.980;11.652;2023-03-07T06:23:33;6.20;53.00
50758;DHT22;36732;47.980;11.652;2023-03-07T06:26:01;6.20;53.00
50758;DHT22;36732;47.980;11.652;2023-03-07T06:28:28;6.20;53.10
50758;DHT22;36732;47.980;11.652;2023-03-07T06:30:54;6.20;53.20
50758;DHT22;36732;47.980;11.652;2023-03-07T06:33:20;6.20;53.10
50758;DHT22;36732;47.980;11.652;2023-03-07T06:35:46;6.20;53.10
50758;DHT22;36732;47.980;11.652;2023-03-07T06:38:13;6.20;53.20
50758;DHT22;36732;47.980;11.652;2023-03-07T06:40:40;6.20;53.20
50758;DHT22;36732;47.980;11.652;2023-03-07T06:43:06;6.20;53.30
50758;DHT22;36732;47.980;11.652;2023-03-07T06:45:32;6.20;53.30
50758;DHT22;36732;47.980;11.652;2023-03-07T06:47:58;6.20;53.40
50758;DHT22;36732;47.980;11.652;2023-03-07T06:50:24;6.20;53.50
50758;DHT22;36732;47.980;11.652;2023-03-07T06:52:50;6.20;53.50
50758;DHT22;36732;47.980;11.652;2023-03-07T06:55:17;6.20;53.50
50758;DHT22;36732;47.980;11.652;2023-03-07T06:57:44;6.20;53.60
50758;DHT22;36732;47.980;11.652;2023-03-07T07:00:11;6.20;53.70
50758;DHT22;36732;47.980;11.652;2023-03-07T07:02:37;6.30;53.90
50758;DHT22;36732;47.980;11.652;2023-03-07T07:05:03;6.30;53.90
50758;DHT22;36732;47.980;11.652;2023-03-07T07:07:29;6.30;53.90
50758;DHT22;36732;47.980;11.652;2023-03-07T07:09:55;6.30;53.70
50758;DHT22;36732;47.980;11.652;2023-03-07T07:12:21;6.30;53.90
50758;DHT22;36732;47.980;11.652;2023-03-07T07:14:47;6.40;54.00
50758;DHT22;36732;47.980;11.652;2023-03-07T07:17:12;6.30;53.90
50758;DHT22;36732;47.980;11.652;2023-03-07T07:19:38;6.40;54.10
50758;DHT22;36732;47.980;11.652;2023-03-07T07:22:04;6.40;54.10
50758;DHT22;36732;47.980;11.652;2023-03-07T07:24:33;6.40;54.20
50758;DHT22;36732;47.980;11.652;2023-03-07T07:26:58;6.40;54.10
50758;DHT22;36732;47.980;11.652;2023-03-07T07:29:24;6.40;54.10
50758;DHT22;36732;47.980;11.652;2023-03-07T07:31:50;6.40;54.10
50758;DHT22;36732;47.980;11.652;2023-03-07T07:34:16;6.40;54.20
50758;DHT22;36732;47.980;11.652;2023-03-07T07:36:41;6.40;54.20
50758;DHT22;36732;47.980;11.652;2023-03-07T07:39:07;6.50;54.30
50758;DHT22;36732;47.980;11.652;2023-03-07T07:41:34;6.50;54.30
50758;DHT22;36732;47.980;11.652;2023-03-07T07:44:00;6.50;54.20
50758;DHT22;36732;47.980;11.652;2023-03-07T07:46:27;6.50;54.20
50758;DHT22;36732;47.980;11.652;2023-03-07T07:48:54;6.50;54.10
50758;DHT22;36732;47.980;11.652;2023-03-07T07:51:20;6.50;54.20
50758;DHT22;36732;47.980;11.652;2023-03-07T07:53:46;6.50;54.20
50758;DHT22;36732;47.980;11.652;2023-03-07T07:56:12;6.50;54.20
50758;DHT22;36732;47.980;11.652;2023-03-07T07:58:38;6.60;54.30
50758;DHT22;36732;47.980;11.652;2023-03-07T08:01:16;6.60;54.30
50758;DHT22;36732;47.980;11.652;2023-03-07T08:03:43;6.60;54.20
50758;DHT22;36732;47.980;11.652;2023-03-07T08:06:09;6.60;54.10
50758;DHT22;36732;47.980;11.652;2023-03-07T08:08:35;6.60;54.10
50758;DHT22;36732;47.980;11.652;2023-03-07T08:11:01;6.60;54.20
50758;DHT22;36732;47.980;11.652;2023-03-07T08:13:27;6.70;54.20
50758;DHT22;36732;47.980;11.652;2023-03-07T08:15:53;6.70;54.10
50758;DHT22;36732;47.980;11.652;2023-03-07T08:18:19;6.70;54.10
50758;DHT22;36732;47.980;11.652;2023-03-07T08:20:45;6.70;53.90
50758;DHT22;36732;47.980;11.652;2023-03-07T08:23:11;6.70;53.90
50758;DHT22;36732;47.980;11.652;2023-03-07T08:25:36;6.70;53.90
50758;DHT22;36732;47.980;11.652;2023-03-07T08:28:03;6.70;54.00
50758;DHT22;36732;47.980;11.652;2023-03-07T08:30:31;6.70;53.80
50758;DHT22;36732;47.980;11.652;2023-03-07T08:32:58;6.70;53.90
50758;DHT22;36732;47.980;11.652;2023-03-07T08:35:25;6.70;53.90
50758;DHT22;36732;47.980;11.652;2023-03-07T08:37:56;6.70;53.90
50758;DHT22;36732;47.980;11.652;2023-03-07T08:40:24;6.70;53.70
50758;DHT22;36732;47.980;11.652;2023-03-07T08:42:51;6.80;53.80
50758;DHT22;36732;47.980;11.652;2023-03-07T08:45:19;6.80;53.70
50758;DHT22;36732;47.980;11.652;2023-03-07T08:47:46;6.80;53.60
50758;DHT22;36732;47.980;11.652;2023-03-07T08:50:12;6.80;53.60
50758;DHT22;36732;47.980;11.652;2023-03-07T08:52:37;6.80;53.60
50758;DHT22;36732;47.980;11.652;2023-03-07T08:55:03;6.80;53.70
50758;DHT22;36732;47.980;11.652;2023-03-07T08:57:29;6.80;53.60
50758;DHT22;36732;47.980;11.652;2023-03-07T08:59:55;6.80;53.40
50758;DHT22;36732;47.980;11.652;2023-03-07T09:02:21;6.80;53.50
50758;DHT22;36732;47.980;11.652;2023-03-07T09:04:47;6.80;53.40
50758;DHT22;36732;47.980;11.652;2023-03-07T09:07:12;6.80;53.50
50758;DHT22;36732;47.980;11.652;2023-03-07T09:09:38;6.90;53.50
50758;DHT22;36732;47.980;11.652;2023-03-07T09:12:04;6.90;53.50
50758;DHT22;36732;47.980;11.652;2023-03-07T09:14:29;6.90;54.20
50758;DHT22;36732;47.980;11.652;2023-03-07T09:16:55;6.90;53.60
50758;DHT22;36732;47.980;11.652;2023-03-07T09:19:21;6.90;53.50
50758;DHT22;36732;47.980;11.652;2023-03-07T09:21:48;6.90;53.50
50758;DHT22;36732;47.980;11.652;2023-03-07T09:24:14;6.90;53.50
50758;DHT22;36732;47.980;11.652;2023-03-07T09:26:40;6.90;53.40
50758;DHT22;36732;47.980;11.652;2023-03-07T09:29:05;6.90;53.40
50758;DHT22;36732;47.980;11.652;2023-03-07T09:31:31;6.90;53.50
50758;DHT22;36732;47.980;11.652;2023-03-07T09:33:57;6.90;53.40
50758;DHT22;36732;47.980;11.652;2023-03-07T09:36:23;6.90;53.40
50758;DHT22;36732;47.980;11.652;2023-03-07T09:38:49;7.00;53.50
50758;DHT22;36732;47.980;11.652;2023-03-07T09:41:29;7.00;53.20
50758;DHT22;36732;47.980;11.652;2023-03-07T09:49:48;7.00;52.70
50758;DHT22;36732;47.980;11.652;2023-03-07T09:52:22;7.00;52.80
50758;DHT22;36732;47.980;11.652;2023-03-07T09:54:52;7.00;53.10
50758;DHT22;36732;47.980;11.652;2023-03-07T09:57:25;7.00;53.10
50758;DHT22;36732;47.980;11.652;2023-03-07T09:59:59;7.00;53.20
50758;DHT22;36732;47.980;11.652;2023-03-07T10:02:47;7.00;53.00
50758;DHT22;36732;47.980;11.652;2023-03-07T10:05:38;7.00;52.70
50758;DHT22;36732;47.980;11.652;2023-03-07T10:08:14;7.10;53.00
50758;DHT22;36732;47.980;11.652;2023-03-07T10:10:48;7.10;53.20
50758;DHT22;36732;47.980;11.652;2023-03-07T10:14:01;7.10;53.10
50758;DHT22;36732;47.980;11.652;2023-03-07T10:19:48;7.10;53.30
50758;DHT22;36732;47.980;11.652;2023-03-07T10:22:18;7.10;53.40
50758;DHT22;36732;47.980;11.652;2023-03-07T10:27:32;7.20;53.40
50758;DHT22;36732;47.980;11.652;2023-03-07T10:30:00;7.20;53.30
50758;DHT22;36732;47.980;11.652;2023-03-07T10:32:46;7.20;53.10
50758;DHT22;36732;47.980;11.652;2023-03-07T10:35:22;7.20;53.00
50758;DHT22;36732;47.980;11.652;2023-03-07T10:37:56;7.20;53.10
50758;DHT22;36732;47.980;11.652;2023-03-07T10:40:47;7.20;53.10
50758;DHT22;36732;47.980;11.652;2023-03-07T10:43:31;7.20;52.70
50758;DHT22;36732;47.980;11.652;2023-03-07T10:46:14;7.30;52.70
50758;DHT22;36732;47.980;11.652;2023-03-07T10:48:52;7.30;52.70
50758;DHT22;36732;47.980;11.652;2023-03-07T10:54:03;7.30;52.90
50758;DHT22;36732;47.980;11.652;2023-03-07T10:56:30;7.30;52.90
50758;DHT22;36732;47.980;11.652;2023-03-07T10:59:05;7.30;52.90
50758;DHT22;36732;47.980;11.652;2023-03-07T11:01:55;7.40;52.40
50758;DHT22;36732;47.980;11.652;2023-03-07T11:04:23;7.30;52.40
50758;DHT22;36732;47.980;11.652;2023-03-07T11:09:30;7.40;52.60
50758;DHT22;36732;47.980;11.652;2023-03-07T11:17:38;7.40;52.50
50758;DHT22;36732;47.980;11.652;2023-03-07T11:20:27;7.40;52.40
50758;DHT22;36732;47.980;11.652;2023-03-07T11:23:27;7.40;52.40
50758;DHT22;36732;47.980;11.652;2023-03-07T11:26:20;7.40;52.50
50758;DHT22;36732;47.980;11.652;2023-03-07T11:28:46;7.40;52.70
50758;DHT22;36732;47.980;11.652;2023-03-07T11:36:38;7.50;52.70
50758;DHT22;36732;47.980;11.652;2023-03-07T11:42:12;7.40;52.60
50758;DHT22;36732;47.980;11.652;2023-03-07T11:47:29;7.50;52.50
50758;DHT22;36732;47.980;11.652;2023-03-07T11:50:14;7.50;52.50
50758;DHT22;36732;47.980;11.652;2023-03-07T11:55:55;7.50;52.50
50758;DHT22;36732;47.980;11.652;2023-03-07T11:58:44;7.50;52.00
50758;DHT22;36732;47.980;11.652;2023-03-07T12:04:33;7.50;52.50
50758;DHT22;36732;47.980;11.652;2023-03-07T12:13:42;7.60;52.30
50758;DHT22;36732;47.980;11.652;2023-03-07T12:16:26;7.60;52.60
50758;DHT22;36732;47.980;11.652;2023-03-07T12:25:21;7.60;52.30
50758;DHT22;36732;47.980;11.652;2023-03-07T12:28:26;7.60;52.30
50758;DHT22;36732;47.980;11.652;2023-03-07T12:39:27;7.60;52.60
50758;DHT22;36732;47.980;11.652;2023-03-07T12:45:16;7.70;52.40
50758;DHT22;36732;47.980;11.652;2023-03-07T12:47:50;7.70;52.60
50758;DHT22;36732;47.980;11.652;2023-03-07T12:53:09;7.70;52.70
50758;DHT22;36732;47.980;11.652;2023-03-07T12:55:50;7.70;52.70
50758;DHT22;36732;47.980;11.652;2023-03-07T12:58:48;7.80;52.70
50758;DHT22;36732;47.980;11.652;2023-03-07T13:06:29;7.80;52.60
50758;DHT22;36732;47.980;11.652;2023-03-07T13:08:58;7.80;52.80
50758;DHT22;36732;47.980;11.652;2023-03-07T13:11:32;7.80;52.80
50758;DHT22;36732;47.980;11.652;2023-03-07T13:14:04;7.80;52.90
50758;DHT22;36732;47.980;11.652;2023-03-07T13:21:58;7.90;52.60
50758;DHT22;36732;47.980;11.652;2023-03-07T13:24:45;7.90;52.80
50758;DHT22;36732;47.980;11.652;2023-03-07T13:58:44;8.00;52.60
50758;DHT22;36732;47.980;11.652;2023-03-07T14:01:18;8.10;52.70
50758;DHT22;36732;47.980;11.652;2023-03-07T14:03:51;8.10;52.30
50758;DHT22;36732;47.980;11.652;2023-03-07T14:06:25;8.10;52.30
50758;DHT22;36732;47.980;11.652;2023-03-07T14:08:57;8.10;52.30
50758;DHT22;36732;47.980;11.652;2023-03-07T14:14:32;8.10;52.60
50758;DHT22;36732;47.980;11.652;2023-03-07T14:20:02;8.20;52.60
50758;DHT22;36732;47.980;11.652;2023-03-07T14:25:33;8.10;52.30
50758;DHT22;36732;47.980;11.652;2023-03-07T14:28:03;8.20;52.40
50758;DHT22;36732;47.980;11.652;2023-03-07T14:30:55;8.20;52.40
50758;DHT22;36732;47.980;11.652;2023-03-07T14:33:32;8.20;52.10
50758;DHT22;36732;47.980;11.652;2023-03-07T14:36:01;8.20;52.20
50758;DHT22;36732;47.980;11.652;2023-03-07T14:38:29;8.20;52.40
50758;DHT22;36732;47.980;11.652;2023-03-07T14:44:12;8.20;52.30
50758;DHT22;36732;47.980;11.652;2023-03-07T14:47:05;8.20;52.10
50758;DHT22;36732;47.980;11.652;2023-03-07T14:52:11;8.30;52.40
50758;DHT22;36732;47.980;11.652;2023-03-07T14:54:39;8.30;53.00
50758;DHT22;36732;47.980;11.652;2023-03-07T14:57:17;8.30;52.40
50758;DHT22;36732;47.980;11.652;2023-03-07T15:00:10;8.30;52.00
50758;DHT22;36732;47.980;11.652;2023-03-07T15:03:09;8.30;52.00
50758;DHT22;36732;47.980;11.652;2023-03-07T15:05:57;8.30;52.20
50758;DHT22;36732;47.980;11.652;2023-03-07T15:08:33;8.30;52.20
50758;DHT22;36732;47.980;11.652;2023-03-07T15:11:21;8.30;52.40
50758;DHT22;36732;47.980;11.652;2023-03-07T15:13:56;8.30;52.20
50758;DHT22;36732;47.980;11.652;2023-03-07T15:16:34;8.30;52.10
50758;DHT22;36732;47.980;11.652;2023-03-07T15:21:59;8.30;51.90
50758;DHT22;36732;47.980;11.652;2023-03-07T15:24:37;8.30;52.70
50758;DHT22;36732;47.980;11.652;2023-03-07T15:27:05;8.40;51.70
50758;DHT22;36732;47.980;11.652;2023-03-07T15:29:35;8.40;51.80
50758;DHT22;36732;47.980;11.652;2023-03-07T15:32:03;8.40;51.80
50758;DHT22;36732;47.980;11.652;2023-03-07T15:34:38;8.40;51.70
50758;DHT22;36732;47.980;11.652;2023-03-07T15:37:21;8.40;51.70
50758;DHT22;36732;47.980;11.652;2023-03-07T15:39:58;8.40;51.50
50758;DHT22;36732;47.980;11.652;2023-03-07T15:42:52;8.40;51.50
50758;DHT22;36732;47.980;11.652;2023-03-07T15:45:30;8.50;51.70
50758;DHT22;36732;47.980;11.652;2023-03-07T15:47:57;8.40;51.50
50758;DHT22;36732;47.980;11.652;2023-03-07T15:50:26;8.50;51.80
50758;DHT22;36732;47.980;11.652;2023-03-07T15:52:58;8.40;51.50
50758;DHT22;36732;47.980;11.652;2023-03-07T15:55:26;8.50;51.60
50758;DHT22;36732;47.980;11.652;2023-03-07T15:57:54;8.40;51.60
50758;DHT22;36732;47.980;11.652;2023-03-07T16:00:33;8.40;51.40
50758;DHT22;36732;47.980;11.652;2023-03-07T16:03:19;8.40;51.10
50758;DHT22;36732;47.980;11.652;2023-03-07T16:05:48;8.40;50.60
50758;DHT22;36732;47.980;11.652;2023-03-07T16:08:15;8.40;51.00
50758;DHT22;36732;47.980;11.652;2023-03-07T16:11:01;8.40;50.90
50758;DHT22;36732;47.980;11.652;2023-03-07T16:13:40;8.40;50.50
50758;DHT22;36732;47.980;11.652;2023-03-07T16:16:20;8.40;50.60
50758;DHT22;36732;47.980;11.652;2023-03-07T16:18:48;8.40;51.00
50758;DHT22;36732;47.980;11.652;2023-03-07T16:21:15;8.40;51.10
50758;DHT22;36732;47.980;11.652;2023-03-07T16:23:42;8.50;51.30
50758;DHT22;36732;47.980;11.652;2023-03-07T16:26:17;8.40;51.10
50758;DHT22;36732;47.980;11.652;2023-03-07T16:28:46;8.40;50.70
50758;DHT22;36732;47.980;11.652;2023-03-07T16:31:14;8.40;51.00
50758;DHT22;36732;47.980;11.652;2023-03-07T16:33:42;8.40;50.90
50758;DHT22;36732;47.980;11.652;2023-03-07T16:36:09;8.50;50.80
50758;DHT22;36732;47.980;11.652;2023-03-07T16:38:36;8.40;50.90
50758;DHT22;36732;47.980;11.652;2023-03-07T16:41:02;8.40;50.90
50758;DHT22;36732;47.980;11.652;2023-03-07T16:43:36;8.40;51.00
50758;DHT22;36732;47.980;11.652;2023-03-07T16:46:05;8.40;50.90
50758;DHT22;36732;47.980;11.652;2023-03-07T16:48:35;8.40;50.80
50758;DHT22;36732;47.980;11.652;2023-03-07T16:51:02;8.40;50.90
50758;DHT22;36732;47.980;11.652;2023-03-07T16:53:28;8.40;51.00
50758;DHT22;36732;47.980;11.652;2023-03-07T16:55:56;8.40;50.80
50758;DHT22;36732;47.980;11.652;2023-03-07T16:58:26;8.40;50.40
50758;DHT22;36732;47.980;11.652;2023-03-07T17:00:54;8.40;50.40
50758;DHT22;36732;47.980;11.652;2023-03-07T17:03:20;8.40;50.30
50758;DHT22;36732;47.980;11.652;2023-03-07T17:05:46;8.40;49.90
50758;DHT22;36732;47.980;11.652;2023-03-07T17:08:12;8.40;49.90
50758;DHT22;36732;47.980;11.652;2023-03-07T17:10:38;8.40;49.60
50758;DHT22;36732;47.980;11.652;2023-03-07T17:13:07;8.40;50.00
50758;DHT22;36732;47.980;11.652;2023-03-07T17:15:34;8.40;50.10
50758;DHT22;36732;47.980;11.652;2023-03-07T17:18:01;8.30;49.60
50758;DHT22;36732;47.980;11.652;2023-03-07T17:20:27;8.40;50.00
50758;DHT22;36732;47.980;11.652;2023-03-07T17:22:53;8.30;49.80
50758;DHT22;36732;47.980;11.652;2023-03-07T17:25:19;8.30;49.90
50758;DHT22;36732;47.980;11.652;2023-03-07T17:27:47;8.30;49.50
50758;DHT22;36732;47.980;11.652;2023-03-07T17:30:22;8.30;49.60
50758;DHT22;36732;47.980;11.652;2023-03-07T17:32:49;8.30;49.60
50758;DHT22;36732;47.980;11.652;2023-03-07T17:35:15;8.30;49.70
50758;DHT22;36732;47.980;11.652;2023-03-07T17:37:42;8.30;49.70
50758;DHT22;36732;47.980;11.652;2023-03-07T17:40:11;8.30;49.60
50758;DHT22;36732;47.980;11.652;2023-03-07T17:42:38;8.30;49.40
50758;DHT22;36732;47.980;11.652;2023-03-07T17:45:07;8.30;49.40
50758;DHT22;36732;47.980;11.652;2023-03-07T17:47:34;8.30;49.30
50758;DHT22;36732;47.980;11.652;2023-03-07T17:50:01;8.30;49.20
50758;DHT22;36732;47.980;11.652;2023-03-07T17:52:30;8.30;49.20
50758;DHT22;36732;47.980;11.652;2023-03-07T17:54:56;8.30;49.10
50758;DHT22;36732;47.980;11.652;2023-03-07T17:57:22;8.30;49.10